createdAt,value
2019-02-23T00:00:29.071Z,5.90
2019-02-23T00:01:29.032Z,7.40
2019-02-23T00:02:29.021Z,6.20
2019-02-23T00:03:29.025Z,6.20
2019-02-23T00:04:29.024Z,6.30
2019-02-23T00:05:29.027Z,7.50
2019-02-23T00:06:30.219Z,6.50
2019-02-23T00:07:28.969Z,6.90
2019-02-23T00:08:28.958Z,6.90
2019-02-23T00:09:28.948Z,6.30
2019-02-23T00:10:28.937Z,7.20
2019-02-23T00:11:28.961Z,6.90
2019-02-23T00:12:28.914Z,5.90
2019-02-23T00:13:28.902Z,6.00
2019-02-23T00:14:28.891Z,6.40
2019-02-23T00:15:28.882Z,7.50
2019-02-23T00:16:28.886Z,6.80
2019-02-23T00:17:28.897Z,6.40
2019-02-23T00:18:28.849Z,6.60
2019-02-23T00:19:28.837Z,7.20
2019-02-23T00:20:28.828Z,8.30
2019-02-23T00:21:28.818Z,8.90
2019-02-23T00:22:28.807Z,7.10
2019-02-23T00:23:28.830Z,7.30
2019-02-23T00:24:28.786Z,7.70
2019-02-23T00:25:28.775Z,6.00
2019-02-23T00:26:28.762Z,6.90
2019-02-23T00:27:28.753Z,7.30
2019-02-23T00:28:28.740Z,7.40
2019-02-23T00:29:28.768Z,8.30
2019-02-23T00:30:28.723Z,7.50
2019-02-23T00:31:28.709Z,7.30
2019-02-23T00:32:28.700Z,7.90
2019-02-23T00:33:28.690Z,8.50
2019-02-23T00:34:28.677Z,7.60
2019-02-23T00:35:28.691Z,8.10
2019-02-23T00:36:28.656Z,8.90
2019-02-23T00:37:28.643Z,9.60
2019-02-23T00:38:28.636Z,8.40
2019-02-23T00:39:28.628Z,7.70
2019-02-23T00:40:28.637Z,7.90
2019-02-23T00:41:28.600Z,7.90
2019-02-23T00:42:28.591Z,8.50
2019-02-23T00:43:28.581Z,10.30
2019-02-23T00:44:28.574Z,9.20
2019-02-23T00:45:28.596Z,8.10
2019-02-23T00:46:28.549Z,10.30
2019-02-23T00:47:28.535Z,7.90
2019-02-23T00:48:28.527Z,9.00
2019-02-23T00:49:35.734Z,8.50
2019-02-23T00:50:29.543Z,8.60
2019-02-23T00:51:28.494Z,7.90
2019-02-23T00:52:28.484Z,8.50
2019-02-23T00:53:28.473Z,9.20
2019-02-23T00:54:28.461Z,8.50
2019-02-23T00:55:28.449Z,8.00
2019-02-23T00:56:28.470Z,7.50
2019-02-23T00:57:28.432Z,7.30
2019-02-23T00:58:28.420Z,6.90
2019-02-23T00:59:28.407Z,7.10
2019-02-23T01:00:28.398Z,7.20
2019-02-23T01:01:28.425Z,7.80
2019-02-23T01:02:28.376Z,7.50
2019-02-23T01:03:28.365Z,7.70
2019-02-23T01:04:28.357Z,6.10
2019-02-23T01:05:28.343Z,6.80
2019-02-23T01:06:28.341Z,6.20
2019-02-23T01:07:28.358Z,6.10
2019-02-23T01:08:28.312Z,6.20
2019-02-23T01:09:28.299Z,6.10
2019-02-23T01:10:28.290Z,5.90
2019-02-23T01:11:28.280Z,6.10
2019-02-23T01:12:28.267Z,7.00
2019-02-23T01:13:28.293Z,5.80
2019-02-23T01:14:28.248Z,5.90
2019-02-23T01:15:28.238Z,5.80
2019-02-23T01:16:28.232Z,6.10
2019-02-23T01:17:28.215Z,6.30
2019-02-23T01:18:28.203Z,6.40
2019-02-23T01:19:28.228Z,6.30
2019-02-23T01:20:28.181Z,5.80
2019-02-23T01:21:28.169Z,6.20
2019-02-23T01:22:28.159Z,5.90
2019-02-23T01:23:28.149Z,6.10
2019-02-23T01:24:28.138Z,6.00
2019-02-23T01:25:28.153Z,6.10
2019-02-23T01:26:28.116Z,6.10
2019-02-23T01:27:28.106Z,5.90
2019-02-23T01:28:28.097Z,6.50
2019-02-23T01:29:28.084Z,6.00
2019-02-23T01:30:28.101Z,6.10
2019-02-23T01:31:28.064Z,4.90
2019-02-23T01:32:28.054Z,6.60
2019-02-23T01:33:28.041Z,5.60
2019-02-23T01:34:28.030Z,5.70
2019-02-23T01:35:28.048Z,5.80
2019-02-23T01:36:28.009Z,5.60
2019-02-23T01:37:27.998Z,5.80
2019-02-23T01:38:27.986Z,6.20
2019-02-23T01:39:27.978Z,6.40
2019-02-23T01:40:28.001Z,6.20
2019-02-23T01:41:27.955Z,5.70
2019-02-23T01:42:27.947Z,6.00
2019-02-23T01:43:27.934Z,5.50
2019-02-23T01:44:27.927Z,6.00
2019-02-23T01:45:27.912Z,6.90
2019-02-23T01:46:27.930Z,6.10
2019-02-23T01:47:27.890Z,6.10
2019-02-23T01:48:27.882Z,7.50
2019-02-23T01:49:27.869Z,6.40
2019-02-23T01:50:27.859Z,6.50
2019-02-23T01:51:27.891Z,6.20
2019-02-23T01:52:27.838Z,6.30
2019-02-23T01:53:27.826Z,5.80
2019-02-23T01:54:27.816Z,6.00
2019-02-23T01:55:27.805Z,5.90
2019-02-23T01:56:27.795Z,6.20
2019-02-23T01:57:27.819Z,6.40
2019-02-23T01:58:27.772Z,6.00
2019-02-23T01:59:27.763Z,5.90
2019-02-23T02:00:27.749Z,6.00
2019-02-23T02:01:27.740Z,6.30
2019-02-23T02:02:27.730Z,5.90
2019-02-23T02:03:27.760Z,6.20
2019-02-23T02:04:27.708Z,6.00
2019-02-23T02:05:27.698Z,5.80
2019-02-23T02:06:27.687Z,7.00
2019-02-23T02:07:27.678Z,6.60
2019-02-23T02:08:27.666Z,6.00
2019-02-23T02:09:27.692Z,5.40
2019-02-23T02:10:27.647Z,6.20
2019-02-23T02:11:27.636Z,6.80
2019-02-23T02:12:27.624Z,5.60
2019-02-23T02:13:27.615Z,6.60
2019-02-23T02:14:27.601Z,6.70
2019-02-23T02:15:27.617Z,6.30
2019-02-23T02:16:27.582Z,6.20
2019-02-23T02:17:27.571Z,6.20
2019-02-23T02:18:27.562Z,5.70
2019-02-23T02:19:27.549Z,5.70
2019-02-23T02:20:27.566Z,5.90
2019-02-23T02:21:27.532Z,5.50
2019-02-23T02:22:27.518Z,6.00
2019-02-23T02:23:27.508Z,5.80
2019-02-23T02:24:27.498Z,6.60
2019-02-23T02:25:27.529Z,6.40
2019-02-23T02:26:27.479Z,5.90
2019-02-23T02:27:27.467Z,6.70
2019-02-23T02:28:27.458Z,6.10
2019-02-23T02:29:27.449Z,7.00
2019-02-23T02:30:27.439Z,6.90
2019-02-23T02:31:27.461Z,6.40
2019-02-23T02:32:27.414Z,6.70
2019-02-23T02:33:27.404Z,6.90
2019-02-23T02:34:27.392Z,6.20
2019-02-23T02:35:27.381Z,7.20
2019-02-23T02:36:27.372Z,6.50
2019-02-23T02:37:27.409Z,6.20
2019-02-23T02:38:27.352Z,6.50
2019-02-23T02:39:27.339Z,6.90
2019-02-23T02:40:27.334Z,6.00
2019-02-23T02:41:27.323Z,7.40
2019-02-23T02:42:27.308Z,6.80
2019-02-23T02:43:27.337Z,7.20
2019-02-23T02:44:27.288Z,6.50
2019-02-23T02:45:27.278Z,6.20
2019-02-23T02:46:27.278Z,7.10
2019-02-23T02:47:27.260Z,7.50
2019-02-23T02:48:27.248Z,6.60
2019-02-23T02:49:27.274Z,6.70
2019-02-23T02:50:27.226Z,7.40
2019-02-23T02:51:27.217Z,6.10
2019-02-23T02:52:27.207Z,8.40
2019-02-23T02:53:27.194Z,6.20
2019-02-23T02:54:27.185Z,6.10
2019-02-23T02:55:27.200Z,6.40
2019-02-23T02:56:27.168Z,7.40
2019-02-23T02:57:27.159Z,6.00
2019-02-23T02:58:27.144Z,7.40
2019-02-23T02:59:27.133Z,7.60
2019-02-23T03:00:27.154Z,7.40
2019-02-23T03:01:27.114Z,6.90
2019-02-23T03:02:27.101Z,7.00
2019-02-23T03:03:27.091Z,7.10
2019-02-23T03:04:27.086Z,7.20
2019-02-23T03:05:27.108Z,6.70
2019-02-23T03:06:27.060Z,7.50
2019-02-23T03:07:27.050Z,7.00
2019-02-23T03:08:27.039Z,6.90
2019-02-23T03:09:27.028Z,7.00
2019-02-23T03:10:27.019Z,7.20
2019-02-23T03:11:27.047Z,7.90
2019-02-23T03:12:26.998Z,7.40
2019-02-23T03:13:26.990Z,7.30
2019-02-23T03:14:26.977Z,6.90
2019-02-23T03:15:26.966Z,7.20
2019-02-23T03:16:26.959Z,7.70
2019-02-23T03:17:26.996Z,7.20
2019-02-23T03:18:26.934Z,7.30
2019-02-23T03:19:26.924Z,7.40
2019-02-23T03:20:36.335Z,7.90
2019-02-23T03:21:27.902Z,8.30
2019-02-23T03:22:26.893Z,8.00
2019-02-23T03:23:26.920Z,7.70
2019-02-23T03:24:26.873Z,7.50
2019-02-23T03:25:26.865Z,7.30
2019-02-23T03:26:26.850Z,8.30
2019-02-23T03:27:26.842Z,7.40
2019-02-23T03:28:26.834Z,8.00
2019-02-23T03:29:26.857Z,8.20
2019-02-23T03:30:26.878Z,8.00
2019-02-23T03:31:26.818Z,8.80
2019-02-23T03:32:26.791Z,7.10
2019-02-23T03:33:26.780Z,8.20
2019-02-23T03:34:26.770Z,8.40
2019-02-23T03:35:26.784Z,7.80
2019-02-23T03:36:26.746Z,8.00
2019-02-23T03:37:26.739Z,8.60
2019-02-23T03:38:26.727Z,8.60
2019-02-23T03:39:26.717Z,8.20
2019-02-23T03:40:26.730Z,8.20
2019-02-23T03:41:26.696Z,8.70
2019-02-23T03:42:26.686Z,8.20
2019-02-23T03:43:26.674Z,8.30
2019-02-23T03:44:26.664Z,8.60
2019-02-23T03:45:26.696Z,8.30
2019-02-23T03:46:26.641Z,8.00
2019-02-23T03:47:26.632Z,8.50
2019-02-23T03:48:26.621Z,7.80
2019-02-23T03:49:26.610Z,8.30
2019-02-23T03:50:26.600Z,8.10
2019-02-23T03:51:26.641Z,8.30
2019-02-23T03:52:26.587Z,9.30
2019-02-23T03:53:26.569Z,8.90
2019-02-23T03:54:26.646Z,8.20
2019-02-23T03:55:26.548Z,7.40
2019-02-23T03:56:26.537Z,8.90
2019-02-23T03:57:26.564Z,8.60
2019-02-23T03:58:26.517Z,8.30
2019-02-23T03:59:26.504Z,9.50
2019-02-23T04:00:26.502Z,8.40
2019-02-23T04:01:26.490Z,8.70
2019-02-23T04:02:26.474Z,8.90
2019-02-23T04:03:26.502Z,8.50
2019-02-23T04:04:26.453Z,8.40
2019-02-23T04:05:26.446Z,8.50
2019-02-23T04:06:26.432Z,8.60
2019-02-23T04:07:26.423Z,9.10
2019-02-23T04:08:26.412Z,9.00
2019-02-23T04:09:26.437Z,8.80
2019-02-23T04:10:26.391Z,8.90
2019-02-23T04:11:26.381Z,8.10
2019-02-23T04:12:26.372Z,9.20
2019-02-23T04:13:26.358Z,9.40
2019-02-23T04:14:26.350Z,9.10
2019-02-23T04:15:26.363Z,10.30
2019-02-23T04:16:26.326Z,9.90
2019-02-23T04:17:26.321Z,9.10
2019-02-23T04:18:26.306Z,9.80
2019-02-23T04:19:26.296Z,9.80
2019-02-23T04:20:26.314Z,9.70
2019-02-23T04:21:26.274Z,10.00
2019-02-23T04:22:26.277Z,10.50
2019-02-23T04:23:26.257Z,10.70
2019-02-23T04:24:26.244Z,10.10
2019-02-23T04:25:26.268Z,9.70
2019-02-23T04:26:26.221Z,9.50
2019-02-23T04:27:26.211Z,10.10
2019-02-23T04:28:26.202Z,9.80
2019-02-23T04:29:26.191Z,9.60
2019-02-23T04:30:26.194Z,10.40
2019-02-23T04:31:26.209Z,9.60
2019-02-23T04:32:26.159Z,9.10
2019-02-23T04:33:26.147Z,9.90
2019-02-23T04:34:26.138Z,9.00
2019-02-23T04:35:26.128Z,9.10
2019-02-23T04:36:26.115Z,8.90
2019-02-23T04:37:26.141Z,8.50
2019-02-23T04:38:26.095Z,8.80
2019-02-23T04:39:26.084Z,8.70
2019-02-23T04:40:26.075Z,9.40
2019-02-23T04:41:26.066Z,9.00
2019-02-23T04:42:26.053Z,9.90
2019-02-23T04:43:26.080Z,10.40
2019-02-23T04:44:26.036Z,10.20
2019-02-23T04:45:26.020Z,10.30
2019-02-23T04:46:26.014Z,10.30
2019-02-23T04:47:26.001Z,10.00
2019-02-23T04:48:25.990Z,9.20
2019-02-23T04:49:26.205Z,10.10
2019-02-23T04:50:25.969Z,9.70
2019-02-23T04:51:25.959Z,9.90
2019-02-23T04:52:25.947Z,10.00
2019-02-23T04:53:25.937Z,10.10
2019-02-23T04:54:25.930Z,9.90
2019-02-23T04:55:25.945Z,9.00
2019-02-23T04:56:25.908Z,10.10
2019-02-23T04:57:25.895Z,10.00
2019-02-23T04:58:25.888Z,10.10
2019-02-23T04:59:25.875Z,9.70
2019-02-23T05:00:25.893Z,9.70
2019-02-23T05:01:25.853Z,9.10
2019-02-23T05:02:25.845Z,10.50
2019-02-23T05:03:25.835Z,10.00
2019-02-23T05:04:25.825Z,9.50
2019-02-23T05:05:25.848Z,9.70
2019-02-23T05:06:25.802Z,10.70
2019-02-23T05:07:25.790Z,9.50
2019-02-23T05:08:25.782Z,9.30
2019-02-23T05:09:25.771Z,10.10
2019-02-23T05:10:25.763Z,9.50
2019-02-23T05:11:25.784Z,9.80
2019-02-23T05:12:25.739Z,10.50
2019-02-23T05:13:25.727Z,9.40
2019-02-23T05:14:25.724Z,8.90
2019-02-23T05:15:25.709Z,9.80
2019-02-23T05:16:25.702Z,9.70
2019-02-23T05:17:25.712Z,9.10
2019-02-23T05:18:25.680Z,9.70
2019-02-23T05:19:25.668Z,9.90
2019-02-23T05:20:25.682Z,9.90
2019-02-23T05:21:26.764Z,10.30
2019-02-23T05:22:25.636Z,9.70
2019-02-23T05:23:25.663Z,9.70
2019-02-23T05:24:25.615Z,9.60
2019-02-23T05:25:25.603Z,9.30
2019-02-23T05:26:25.593Z,9.00
2019-02-23T05:27:25.584Z,9.80
2019-02-23T05:28:25.572Z,9.20
2019-02-23T05:29:25.602Z,9.00
2019-02-23T05:30:25.550Z,9.10
2019-02-23T05:31:25.541Z,9.50
2019-02-23T05:32:25.534Z,8.80
2019-02-23T05:33:25.521Z,10.30
2019-02-23T05:34:25.509Z,10.00
2019-02-23T05:35:25.526Z,9.90
2019-02-23T05:36:25.487Z,9.70
2019-02-23T05:37:25.477Z,9.90
2019-02-23T05:38:25.476Z,9.70
2019-02-23T05:39:25.487Z,10.20
2019-02-23T05:40:25.477Z,10.10
2019-02-23T05:41:25.436Z,10.80
2019-02-23T05:42:25.425Z,9.70
2019-02-23T05:43:25.424Z,11.40
2019-02-23T05:44:25.408Z,10.80
2019-02-23T05:45:25.432Z,10.70
2019-02-23T05:46:25.386Z,10.00
2019-02-23T05:47:25.376Z,11.80
2019-02-23T05:48:25.363Z,10.10
2019-02-23T05:49:25.361Z,11.00
2019-02-23T05:50:25.349Z,10.40
2019-02-23T05:51:25.371Z,10.10
2019-02-23T05:52:25.330Z,10.10
2019-02-23T05:53:25.312Z,10.40
2019-02-23T05:54:25.306Z,10.00
2019-02-23T05:55:25.291Z,9.40
2019-02-23T05:56:25.285Z,9.90
2019-02-23T05:57:25.307Z,10.40
2019-02-23T05:58:25.258Z,9.80
2019-02-23T05:59:25.254Z,11.00
2019-02-23T06:00:25.239Z,10.00
2019-02-23T06:01:25.230Z,10.20
2019-02-23T06:02:25.219Z,9.40
2019-02-23T06:03:25.248Z,10.50
2019-02-23T06:04:25.200Z,10.60
2019-02-23T06:05:25.186Z,10.50
2019-02-23T06:06:25.175Z,10.80
2019-02-23T06:07:25.166Z,9.80
2019-02-23T06:08:25.156Z,10.60
2019-02-23T06:09:25.183Z,10.30
2019-02-23T06:10:25.134Z,11.30
2019-02-23T06:11:25.123Z,10.20
2019-02-23T06:12:25.118Z,9.70
2019-02-23T06:13:25.102Z,10.30
2019-02-23T06:14:25.091Z,11.00
2019-02-23T06:15:25.102Z,10.00
2019-02-23T06:16:25.070Z,10.80
2019-02-23T06:17:25.062Z,10.00
2019-02-23T06:18:25.047Z,10.30
2019-02-23T06:19:25.038Z,11.40
2019-02-23T06:20:25.051Z,11.20
2019-02-23T06:21:25.016Z,10.10
2019-02-23T06:22:25.006Z,10.50
2019-02-23T06:23:25.001Z,9.90
2019-02-23T06:24:24.986Z,10.30
2019-02-23T06:25:25.033Z,9.80
2019-02-23T06:26:24.965Z,9.50
2019-02-23T06:27:24.951Z,10.40
2019-02-23T06:28:24.943Z,10.40
2019-02-23T06:29:24.952Z,10.30
2019-02-23T06:30:24.927Z,11.00
2019-02-23T06:31:24.946Z,10.10
2019-02-23T06:32:24.900Z,9.80
2019-02-23T06:33:24.891Z,10.00
2019-02-23T06:34:24.880Z,11.80
2019-02-23T06:35:24.872Z,10.30
2019-02-23T06:36:24.860Z,12.30
2019-02-23T06:37:24.886Z,11.30
2019-02-23T06:38:24.844Z,11.70
2019-02-23T06:39:24.827Z,11.80
2019-02-23T06:40:24.818Z,14.20
2019-02-23T06:41:24.807Z,15.90
2019-02-23T06:42:24.794Z,15.50
2019-02-23T06:43:24.823Z,12.80
2019-02-23T06:44:24.776Z,11.20
2019-02-23T06:45:24.764Z,11.50
2019-02-23T06:46:24.753Z,11.20
2019-02-23T06:47:24.744Z,11.00
2019-02-23T06:48:24.733Z,10.90
2019-02-23T06:49:24.762Z,11.10
2019-02-23T06:50:24.713Z,12.20
2019-02-23T06:51:24.702Z,12.00
2019-02-23T06:52:24.693Z,10.90
2019-02-23T06:53:24.680Z,11.40
2019-02-23T06:54:24.669Z,11.30
2019-02-23T06:55:24.684Z,11.30
2019-02-23T06:56:24.647Z,11.60
2019-02-23T06:57:24.639Z,11.90
2019-02-23T06:58:24.629Z,13.60
2019-02-23T06:59:24.619Z,12.10
2019-02-23T07:00:24.633Z,12.20
2019-02-23T07:01:24.597Z,13.50
2019-02-23T07:02:24.586Z,12.70
2019-02-23T07:03:24.577Z,12.20
2019-02-23T07:04:24.565Z,12.70
2019-02-23T07:05:24.589Z,11.90
2019-02-23T07:06:24.548Z,13.00
2019-02-23T07:07:24.537Z,13.00
2019-02-23T07:08:24.532Z,10.90
2019-02-23T07:09:24.517Z,11.40
2019-02-23T07:10:24.503Z,11.20
2019-02-23T07:11:24.538Z,10.60
2019-02-23T07:12:24.480Z,10.70
2019-02-23T07:13:24.477Z,11.90
2019-02-23T07:14:24.462Z,12.10
2019-02-23T07:15:24.450Z,12.50
2019-02-23T07:16:24.440Z,11.60
2019-02-23T07:17:24.466Z,11.30
2019-02-23T07:18:24.420Z,12.20
2019-02-23T07:19:24.410Z,12.90
2019-02-23T07:20:24.398Z,13.20
2019-02-23T07:21:24.390Z,15.30
2019-02-23T07:22:24.379Z,17.70
2019-02-23T07:23:24.405Z,12.80
2019-02-23T07:24:24.357Z,11.80
2019-02-23T07:25:24.349Z,13.90
2019-02-23T07:26:24.337Z,14.00
2019-02-23T07:27:24.326Z,13.30
2019-02-23T07:28:24.319Z,13.10
2019-02-23T07:29:24.350Z,11.40
2019-02-23T07:30:24.295Z,13.20
2019-02-23T07:31:24.285Z,11.80
2019-02-23T07:32:24.279Z,13.00
2019-02-23T07:33:32.700Z,12.60
2019-02-23T07:34:25.294Z,12.00
2019-02-23T07:35:24.245Z,12.60
2019-02-23T07:36:24.235Z,11.80
2019-02-23T07:37:24.225Z,12.80
2019-02-23T07:38:24.215Z,12.30
2019-02-23T07:39:24.204Z,12.60
2019-02-23T07:40:24.218Z,12.80
2019-02-23T07:41:24.184Z,12.50
2019-02-23T07:42:24.170Z,12.60
2019-02-23T07:43:24.161Z,13.40
2019-02-23T07:44:24.150Z,12.10
2019-02-23T07:45:24.171Z,12.10
2019-02-23T07:46:24.130Z,11.50
2019-02-23T07:47:24.119Z,11.50
2019-02-23T07:48:24.109Z,12.40
2019-02-23T07:49:24.099Z,11.40
2019-02-23T07:50:24.114Z,11.10
2019-02-23T07:51:24.078Z,10.70
2019-02-23T07:52:26.668Z,11.90
2019-02-23T07:53:24.068Z,12.30
2019-02-23T07:54:24.048Z,11.50
2019-02-23T07:55:24.076Z,11.30
2019-02-23T07:56:24.026Z,11.00
2019-02-23T07:57:24.040Z,11.30
2019-02-23T07:58:24.009Z,11.30
2019-02-23T07:59:23.997Z,11.90
2019-02-23T08:00:23.984Z,12.10
2019-02-23T08:01:24.010Z,12.40
2019-02-23T08:02:25.785Z,11.80
2019-02-23T08:03:23.954Z,12.50
2019-02-23T08:04:23.942Z,11.10
2019-02-23T08:05:23.933Z,12.50
2019-02-23T08:06:23.921Z,12.30
2019-02-23T08:07:23.946Z,11.10
2019-02-23T08:08:23.899Z,11.90
2019-02-23T08:09:23.889Z,11.30
2019-02-23T08:10:23.878Z,11.50
2019-02-23T08:11:23.871Z,11.10
2019-02-23T08:12:23.862Z,11.50
2019-02-23T08:13:23.885Z,11.20
2019-02-23T08:14:23.837Z,11.70
2019-02-23T08:15:23.905Z,11.20
2019-02-23T08:16:23.818Z,11.50
2019-02-23T08:17:23.804Z,10.90
2019-02-23T08:18:23.796Z,11.00
2019-02-23T08:19:23.820Z,10.40
2019-02-23T08:20:23.779Z,10.70
2019-02-23T08:21:23.764Z,10.50
2019-02-23T08:22:23.752Z,11.90
2019-02-23T08:23:23.742Z,10.80
2019-02-23T08:24:23.735Z,11.10
2019-02-23T08:25:23.752Z,10.60
2019-02-23T08:26:23.710Z,11.60
2019-02-23T08:27:23.700Z,9.90
2019-02-23T08:28:23.694Z,10.60
2019-02-23T08:29:23.679Z,10.50
2019-02-23T08:30:23.668Z,10.50
2019-02-23T08:31:23.694Z,10.30
2019-02-23T08:32:23.646Z,10.20
2019-02-23T08:33:23.637Z,11.50
2019-02-23T08:34:23.627Z,10.60
2019-02-23T08:35:23.612Z,10.30
2019-02-23T08:36:23.841Z,10.60
2019-02-23T08:37:23.627Z,10.80
2019-02-23T08:38:23.581Z,11.60
2019-02-23T08:39:23.612Z,11.10
2019-02-23T08:40:23.561Z,9.80
2019-02-23T08:41:23.558Z,10.20
2019-02-23T08:42:23.538Z,10.00
2019-02-23T08:43:23.567Z,10.80
2019-02-23T08:44:23.520Z,10.30
2019-02-23T08:45:23.507Z,9.90
2019-02-23T08:46:23.499Z,10.50
2019-02-23T08:47:23.487Z,10.80
2019-02-23T08:48:23.480Z,11.00
2019-02-23T08:49:23.501Z,10.70
2019-02-23T08:50:23.454Z,10.20
2019-02-23T08:51:23.443Z,10.60
2019-02-23T08:52:23.436Z,11.20
2019-02-23T08:53:23.427Z,10.00
2019-02-23T08:54:23.413Z,14.20
2019-02-23T08:55:23.426Z,10.80
2019-02-23T08:56:23.392Z,10.60
2019-02-23T08:57:23.383Z,9.70
2019-02-23T08:58:23.444Z,9.60
2019-02-23T08:59:23.362Z,10.00
2019-02-23T09:00:23.375Z,9.60
2019-02-23T09:01:23.339Z,10.80
2019-02-23T09:02:23.325Z,10.70
2019-02-23T09:03:23.317Z,9.60
2019-02-23T09:04:23.305Z,9.00
2019-02-23T09:05:23.330Z,10.60
2019-02-23T09:06:23.285Z,10.50
2019-02-23T09:07:23.274Z,8.80
2019-02-23T09:08:23.263Z,9.70
2019-02-23T09:09:23.254Z,9.50
2019-02-23T09:10:23.242Z,11.10
2019-02-23T09:11:23.267Z,10.10
2019-02-23T09:12:23.221Z,9.70
2019-02-23T09:13:23.217Z,9.70
2019-02-23T09:14:23.201Z,9.60
2019-02-23T09:15:23.191Z,8.70
2019-02-23T09:16:23.179Z,9.70
2019-02-23T09:17:23.230Z,9.50
2019-02-23T09:18:23.230Z,9.70
2019-02-23T09:19:23.154Z,10.00
2019-02-23T09:20:29.020Z,9.10
2019-02-23T09:21:24.125Z,9.20
2019-02-23T09:22:23.118Z,8.50
2019-02-23T09:23:23.143Z,9.00
2019-02-23T09:24:23.100Z,8.40
2019-02-23T09:25:23.088Z,9.10
2019-02-23T09:26:23.076Z,9.60
2019-02-23T09:27:23.067Z,11.50
2019-02-23T09:28:23.056Z,10.20
2019-02-23T09:29:23.079Z,10.70
2019-02-23T09:30:23.033Z,9.70
2019-02-23T09:31:23.024Z,8.70
2019-02-23T09:32:23.010Z,9.00
2019-02-23T09:33:23.000Z,9.30
2019-02-23T09:34:22.990Z,10.50
2019-02-23T09:35:23.003Z,9.80
2019-02-23T09:36:22.966Z,9.10
2019-02-23T09:37:22.959Z,9.00
2019-02-23T09:38:22.944Z,9.30
2019-02-23T09:39:22.935Z,9.10
2019-02-23T09:40:22.947Z,9.20
2019-02-23T09:41:22.911Z,10.50
2019-02-23T09:42:22.903Z,8.80
2019-02-23T09:43:22.889Z,9.00
2019-02-23T09:44:22.879Z,9.50
2019-02-23T09:45:22.903Z,9.30
2019-02-23T09:46:22.879Z,10.30
2019-02-23T09:47:22.852Z,9.60
2019-02-23T09:48:22.836Z,8.70
2019-02-23T09:49:22.828Z,9.80
2019-02-23T09:50:22.814Z,9.30
2019-02-23T09:51:22.839Z,9.10
2019-02-23T09:52:22.852Z,9.40
2019-02-23T09:53:22.788Z,9.50
2019-02-23T09:54:22.771Z,9.30
2019-02-23T09:55:22.765Z,9.70
2019-02-23T09:56:22.747Z,9.00
2019-02-23T09:57:22.774Z,9.20
2019-02-23T09:58:22.733Z,8.90
2019-02-23T09:59:22.717Z,9.50
2019-02-23T10:00:22.707Z,10.20
2019-02-23T10:01:22.696Z,10.10
2019-02-23T10:02:22.684Z,10.00
2019-02-23T10:03:22.717Z,9.00
2019-02-23T10:04:22.665Z,8.90
2019-02-23T10:05:22.653Z,8.50
2019-02-23T10:06:22.643Z,8.50
2019-02-23T10:07:22.644Z,9.60
2019-02-23T10:08:22.621Z,9.40
2019-02-23T10:09:22.645Z,9.20
2019-02-23T10:10:22.600Z,9.60
2019-02-23T10:11:22.590Z,9.80
2019-02-23T10:12:22.578Z,9.70
2019-02-23T10:13:22.570Z,10.00
2019-02-23T10:14:22.557Z,10.50
2019-02-23T10:15:22.571Z,9.00
2019-02-23T10:16:22.535Z,9.60
2019-02-23T10:17:22.526Z,10.60
2019-02-23T10:18:22.516Z,8.80
2019-02-23T10:19:22.503Z,8.50
2019-02-23T10:20:22.520Z,9.00
2019-02-23T10:21:22.483Z,9.20
2019-02-23T10:22:22.474Z,9.10
2019-02-23T10:23:22.584Z,9.50
2019-02-23T10:24:22.449Z,9.60
2019-02-23T10:25:22.530Z,9.20
2019-02-23T10:26:22.432Z,10.30
2019-02-23T10:27:22.417Z,9.50
2019-02-23T10:28:22.406Z,9.90
2019-02-23T10:29:22.400Z,9.30
2019-02-23T10:30:22.419Z,8.80
2019-02-23T10:31:22.376Z,8.60
2019-02-23T10:32:22.364Z,8.80
2019-02-23T10:33:22.354Z,8.20
2019-02-23T10:34:22.344Z,8.90
2019-02-23T10:35:22.374Z,8.50
2019-02-23T10:36:22.322Z,8.10
2019-02-23T10:37:22.309Z,8.10
2019-02-23T10:38:22.301Z,9.40
2019-02-23T10:39:22.293Z,9.80
2019-02-23T10:40:22.278Z,9.00
2019-02-23T10:41:22.292Z,9.60
2019-02-23T10:42:22.259Z,8.10
2019-02-23T10:43:22.251Z,9.50
2019-02-23T10:44:22.237Z,8.70
2019-02-23T10:45:22.228Z,8.90
2019-02-23T10:46:22.242Z,8.00
2019-02-23T10:47:22.208Z,9.20
2019-02-23T10:48:22.197Z,8.30
2019-02-23T10:49:22.183Z,8.30
2019-02-23T10:50:22.175Z,8.20
2019-02-23T10:51:22.198Z,9.70
2019-02-23T10:52:22.152Z,9.20
2019-02-23T10:53:32.439Z,9.30
2019-02-23T10:54:23.136Z,8.20
2019-02-23T10:55:22.123Z,7.60
2019-02-23T10:56:22.113Z,8.70
2019-02-23T10:57:22.136Z,9.00
2019-02-23T10:58:22.088Z,10.10
2019-02-23T10:59:22.078Z,8.90
2019-02-23T11:00:22.065Z,11.80
2019-02-23T11:01:22.055Z,9.30
2019-02-23T11:02:22.043Z,10.10
2019-02-23T11:03:22.070Z,10.40
2019-02-23T11:04:22.028Z,9.30
2019-02-23T11:05:22.015Z,9.30
2019-02-23T11:06:21.999Z,7.20
2019-02-23T11:07:21.992Z,7.70
2019-02-23T11:08:21.980Z,8.50
2019-02-23T11:09:22.005Z,9.90
2019-02-23T11:10:21.956Z,9.40
2019-02-23T11:11:21.945Z,8.70
2019-02-23T11:12:21.948Z,8.20
2019-02-23T11:13:21.928Z,8.40
2019-02-23T11:14:21.917Z,6.70
2019-02-23T11:15:21.967Z,7.50
2019-02-23T11:16:21.891Z,7.00
2019-02-23T11:17:21.882Z,7.20
2019-02-23T11:18:21.870Z,7.40
2019-02-23T11:19:21.862Z,8.30
2019-02-23T11:20:21.883Z,7.30
2019-02-23T11:21:21.837Z,8.50
2019-02-23T11:22:21.829Z,8.70
2019-02-23T11:23:21.819Z,8.20
2019-02-23T11:24:21.807Z,9.40
2019-02-23T11:25:21.810Z,9.50
2019-02-23T11:26:21.813Z,10.80
2019-02-23T11:27:21.778Z,9.60
2019-02-23T11:28:21.765Z,8.50
2019-02-23T11:29:21.754Z,7.80
2019-02-23T11:30:21.741Z,10.30
2019-02-23T11:31:21.770Z,8.10
2019-02-23T11:32:21.722Z,8.20
2019-02-23T11:33:21.713Z,7.70
2019-02-23T11:34:21.700Z,7.40
2019-02-23T11:35:21.695Z,7.20
2019-02-23T11:36:21.679Z,8.20
2019-02-23T11:37:21.703Z,7.70
2019-02-23T11:38:21.660Z,7.20
2019-02-23T11:39:21.671Z,7.30
2019-02-23T11:40:23.450Z,7.90
2019-02-23T11:41:21.622Z,8.40
2019-02-23T11:42:21.616Z,7.60
2019-02-23T11:43:21.648Z,8.10
2019-02-23T11:44:21.592Z,8.30
2019-02-23T11:45:21.582Z,9.00
2019-02-23T11:46:21.647Z,8.10
2019-02-23T11:47:21.568Z,8.20
2019-02-23T11:48:21.545Z,8.80
2019-02-23T11:49:21.618Z,8.30
2019-02-23T11:50:21.531Z,7.80
2019-02-23T11:51:21.531Z,7.70
2019-02-23T11:52:21.505Z,8.40
2019-02-23T11:53:21.498Z,8.90
2019-02-23T11:54:21.483Z,8.40
2019-02-23T11:55:21.515Z,8.00
2019-02-23T11:56:21.462Z,8.90
2019-02-23T11:57:21.449Z,9.00
2019-02-23T11:58:21.442Z,8.50
2019-02-23T11:59:28.478Z,9.50
2019-02-23T12:00:21.418Z,8.70
2019-02-23T12:01:21.444Z,8.40
2019-02-23T12:02:21.414Z,8.00
2019-02-23T12:03:21.386Z,7.60
2019-02-23T12:04:21.373Z,7.90
2019-02-23T12:05:21.365Z,9.10
2019-02-23T12:06:21.353Z,8.70
2019-02-23T12:07:21.390Z,8.70
2019-02-23T12:08:21.340Z,8.90
2019-02-23T12:09:21.320Z,8.20
2019-02-23T12:10:21.307Z,8.50
2019-02-23T12:11:21.299Z,9.00
2019-02-23T12:12:21.289Z,7.80
2019-02-23T12:13:21.317Z,7.70
2019-02-23T12:14:21.277Z,8.10
2019-02-23T12:15:21.255Z,9.20
2019-02-23T12:16:21.243Z,7.60
2019-02-23T12:17:21.236Z,7.40
2019-02-23T12:18:21.221Z,8.00
2019-02-23T12:19:21.253Z,7.60
2019-02-23T12:20:21.204Z,9.30
2019-02-23T12:21:21.195Z,7.80
2019-02-23T12:22:21.179Z,7.50
2019-02-23T12:23:21.176Z,8.10
2019-02-23T12:24:21.159Z,7.00
2019-02-23T12:25:21.172Z,8.70
2019-02-23T12:26:21.137Z,7.50
2019-02-23T12:27:21.126Z,8.80
2019-02-23T12:28:21.123Z,8.60
2019-02-23T12:29:21.114Z,8.80
2019-02-23T12:30:21.119Z,8.80
2019-02-23T12:31:21.086Z,7.50
2019-02-23T12:32:21.073Z,8.00
2019-02-23T12:33:21.081Z,8.80
2019-02-23T12:34:21.064Z,8.20
2019-02-23T12:35:21.075Z,7.30
2019-02-23T12:36:21.028Z,8.60
2019-02-23T12:37:21.022Z,8.50
2019-02-23T12:38:21.021Z,7.90
2019-02-23T12:39:20.996Z,8.90
2019-02-23T12:40:20.985Z,8.60
2019-02-23T12:41:21.020Z,7.90
2019-02-23T12:42:20.965Z,8.40
2019-02-23T12:43:20.963Z,8.20
2019-02-23T12:44:20.943Z,8.80
2019-02-23T12:45:20.932Z,8.60
2019-02-23T12:46:20.921Z,7.90
2019-02-23T12:47:20.948Z,8.40
2019-02-23T12:48:20.897Z,7.60
2019-02-23T12:49:20.889Z,9.00
2019-02-23T12:50:20.882Z,7.50
2019-02-23T12:51:20.871Z,7.80
2019-02-23T12:52:20.954Z,7.90
2019-02-23T12:53:20.890Z,7.60
2019-02-23T12:54:20.836Z,7.60
2019-02-23T12:55:20.826Z,6.80
2019-02-23T12:56:20.816Z,7.30
2019-02-23T12:57:20.806Z,7.10
2019-02-23T12:58:20.796Z,7.10
2019-02-23T12:59:20.825Z,7.30
2019-02-23T13:00:20.777Z,8.40
2019-02-23T13:01:20.761Z,8.00
2019-02-23T13:02:20.750Z,8.50
2019-02-23T13:03:20.741Z,7.20
2019-02-23T13:04:20.730Z,7.20
2019-02-23T13:05:20.743Z,8.50
2019-02-23T13:06:20.707Z,8.10
2019-02-23T13:07:20.697Z,7.70
2019-02-23T13:08:20.684Z,9.70
2019-02-23T13:09:20.679Z,7.60
2019-02-23T13:10:20.688Z,9.50